createdAt,value
2022-08-07T00:01:44.069Z,2.20
2022-08-07T00:04:19.672Z,2.20
2022-08-07T00:06:52.389Z,2.67
2022-08-07T00:09:21.091Z,2.35
2022-08-07T00:11:55.442Z,2.17
2022-08-07T00:14:25.320Z,2.90
2022-08-07T00:16:53.308Z,2.50
2022-08-07T00:19:26.189Z,2.47
2022-08-07T00:22:09.553Z,2.72
2022-08-07T00:24:39.630Z,2.58
2022-08-07T00:27:09.180Z,3.17
2022-08-07T00:29:37.019Z,2.22
2022-08-07T00:34:35.579Z,2.50
2022-08-07T00:37:05.107Z,2.40
2022-08-07T00:39:33.263Z,2.50
2022-08-07T00:42:01.207Z,2.47
2022-08-07T00:46:56.133Z,2.42
2022-08-07T00:49:24.849Z,2.50
2022-08-07T00:52:12.487Z,2.80
2022-08-07T00:54:40.749Z,2.20
2022-08-07T00:57:10.025Z,2.67
2022-08-07T00:59:39.801Z,2.72
2022-08-07T01:02:14.059Z,3.22
2022-08-07T01:04:58.179Z,2.75
2022-08-07T01:07:29.271Z,2.90
2022-08-07T01:10:06.322Z,2.67
2022-08-07T01:12:54.101Z,2.83
2022-08-07T01:16:00.531Z,3.03
2022-08-07T01:18:16.656Z,2.75
2022-08-07T01:20:57.481Z,2.47
2022-08-07T01:23:37.885Z,2.63
2022-08-07T01:26:08.240Z,2.63
2022-08-07T01:28:40.558Z,3.35
2022-08-07T01:31:17.949Z,2.50
2022-08-07T01:33:55.050Z,2.95
2022-08-07T01:36:33.661Z,2.88
2022-08-07T01:39:10.734Z,2.67
2022-08-07T01:42:01.665Z,3.08
2022-08-07T01:44:32.212Z,4.15
2022-08-07T01:47:01.177Z,3.28
2022-08-07T01:49:43.175Z,2.95
2022-08-07T01:52:11.820Z,3.17
2022-08-07T01:54:45.469Z,3.30
2022-08-07T01:57:24.104Z,3.58
2022-08-07T01:59:54.907Z,3.60
2022-08-07T02:03:11.668Z,3.65
2022-08-07T02:05:42.845Z,3.15
2022-08-07T02:08:07.048Z,3.25
2022-08-07T02:10:42.282Z,3.30
2022-08-07T02:13:11.518Z,3.10
2022-08-07T02:15:49.873Z,3.10
2022-08-07T02:18:21.718Z,3.45
2022-08-07T02:20:55.862Z,3.72
2022-08-07T02:23:26.321Z,2.90
2022-08-07T02:26:32.059Z,3.63
2022-08-07T02:28:44.825Z,3.33
2022-08-07T02:31:28.453Z,3.50
2022-08-07T02:34:03.636Z,3.03
2022-08-07T02:36:45.241Z,3.13
2022-08-07T02:39:43.477Z,3.33
2022-08-07T02:42:09.859Z,3.40
2022-08-07T02:44:42.282Z,3.00
2022-08-07T02:47:34.993Z,3.40
2022-08-07T02:50:11.955Z,3.33
2022-08-07T02:52:47.849Z,3.47
2022-08-07T02:55:41.859Z,2.90
2022-08-07T02:58:11.355Z,3.35
2022-08-07T03:00:41.741Z,2.72
2022-08-07T03:03:21.058Z,3.45
2022-08-07T03:05:53.615Z,2.90
2022-08-07T03:08:26.772Z,3.25
2022-08-07T03:10:57.641Z,4.57
2022-08-07T03:13:39.146Z,3.05
2022-08-07T03:16:17.845Z,3.33
2022-08-07T03:18:51.725Z,3.40
2022-08-07T03:21:20.163Z,3.03
2022-08-07T03:24:21.220Z,2.92
2022-08-07T03:26:43.096Z,3.53
2022-08-07T03:29:29.064Z,4.13
2022-08-07T03:31:56.932Z,3.70
2022-08-07T03:34:27.188Z,3.70
2022-08-07T03:36:58.341Z,4.68
2022-08-07T03:39:59.281Z,3.17
2022-08-07T03:42:17.827Z,3.78
2022-08-07T03:44:53.729Z,3.60
2022-08-07T03:47:26.085Z,3.70
2022-08-07T03:49:55.684Z,3.60
2022-08-07T03:52:28.060Z,3.50
2022-08-07T03:55:07.261Z,3.13
2022-08-07T03:58:35.389Z,3.22
2022-08-07T04:00:33.533Z,3.30
2022-08-07T04:03:03.973Z,3.38
2022-08-07T04:05:40.940Z,3.22
2022-08-07T04:08:18.612Z,3.33
2022-08-07T04:10:54.635Z,3.50
2022-08-07T04:14:10.293Z,3.40
2022-08-07T04:16:31.283Z,3.63
2022-08-07T04:19:04.293Z,3.83
2022-08-07T04:21:59.346Z,3.97
2022-08-07T04:24:39.053Z,4.07
2022-08-07T04:27:15.180Z,3.63
2022-08-07T04:30:02.409Z,3.67
2022-08-07T04:32:47.935Z,4.03
2022-08-07T04:35:17.249Z,4.60
2022-08-07T04:38:03.447Z,4.63
2022-08-07T04:43:03.315Z,4.80
2022-08-07T04:46:00.514Z,4.18
2022-08-07T04:48:39.185Z,4.10
2022-08-07T04:51:17.143Z,4.45
2022-08-07T04:54:01.898Z,4.00
2022-08-07T04:58:16.823Z,3.97
2022-08-07T05:00:09.634Z,4.22
2022-08-07T05:02:21.991Z,4.30
2022-08-07T05:04:55.195Z,4.10
2022-08-07T05:07:30.537Z,4.22
2022-08-07T05:10:07.677Z,4.10
2022-08-07T05:12:46.404Z,3.85
2022-08-07T05:15:25.752Z,3.80
2022-08-07T05:18:00.782Z,4.07
2022-08-07T05:20:34.680Z,4.30
2022-08-07T05:23:15.696Z,4.13
2022-08-07T05:26:11.005Z,4.15
2022-08-07T05:28:35.415Z,4.43
2022-08-07T05:31:04.529Z,4.60
2022-08-07T05:33:35.533Z,4.50
2022-08-07T05:36:08.165Z,4.95
2022-08-07T05:39:00.058Z,4.78
2022-08-07T05:42:01.880Z,5.03
2022-08-07T05:46:47.470Z,4.75
2022-08-07T05:49:23.659Z,5.22
2022-08-07T05:51:54.401Z,4.95
2022-08-07T05:54:31.026Z,4.80
2022-08-07T05:57:14.069Z,4.28
2022-08-07T05:59:57.311Z,4.40
2022-08-07T06:02:30.758Z,4.82
2022-08-07T06:05:03.388Z,4.38
2022-08-07T06:08:09.183Z,4.75
2022-08-07T06:10:23.023Z,4.60
2022-08-07T06:12:51.110Z,5.35
2022-08-07T06:15:20.323Z,4.85
2022-08-07T06:17:53.845Z,4.88
2022-08-07T06:20:31.842Z,5.00
2022-08-07T06:23:24.728Z,5.20
2022-08-07T06:25:54.647Z,6.40
2022-08-07T06:28:27.432Z,6.32
2022-08-07T06:30:56.447Z,7.82
2022-08-07T06:33:26.468Z,7.50
2022-08-07T06:36:06.687Z,6.45
2022-08-07T06:40:13.647Z,4.65
2022-08-07T06:41:59.226Z,3.50
2022-08-07T06:44:45.540Z,1.92
2022-08-07T06:47:19.378Z,2.28
2022-08-07T06:49:51.612Z,2.00
2022-08-07T06:52:31.868Z,2.08
2022-08-07T06:55:32.195Z,1.85
2022-08-07T06:57:59.222Z,1.25
2022-08-07T07:00:33.107Z,1.65
2022-08-07T07:03:10.574Z,1.17
2022-08-07T07:06:05.214Z,1.33
2022-08-07T07:10:56.872Z,1.50
2022-08-07T07:13:56.555Z,1.52
2022-08-07T07:16:19.777Z,1.17
2022-08-07T07:18:49.857Z,1.27
2022-08-07T07:21:19.411Z,1.15
2022-08-07T07:24:06.045Z,0.80
2022-08-07T07:26:37.737Z,1.08
2022-08-07T07:29:38.693Z,1.35
2022-08-07T07:31:57.537Z,1.00
2022-08-07T07:34:30.850Z,1.00
2022-08-07T07:37:14.549Z,1.55
2022-08-07T07:39:54.893Z,1.00
2022-08-07T07:42:32.807Z,1.20
2022-08-07T07:45:02.571Z,0.95
2022-08-07T07:47:52.099Z,0.85
2022-08-07T07:50:34.581Z,1.00
2022-08-07T07:53:20.199Z,0.90
2022-08-07T07:55:54.868Z,0.95
2022-08-07T07:58:28.973Z,1.10
2022-08-07T08:00:56.790Z,1.00
2022-08-07T08:04:06.039Z,0.93
2022-08-07T08:08:41.939Z,0.85
2022-08-07T08:11:16.582Z,0.98
2022-08-07T08:13:59.549Z,0.80
2022-08-07T08:16:31.067Z,1.17
2022-08-07T08:19:00.287Z,0.68
2022-08-07T08:22:00.414Z,0.63
2022-08-07T08:24:57.085Z,0.90
2022-08-07T08:27:34.375Z,0.82
2022-08-07T08:30:05.796Z,0.93
2022-08-07T08:32:38.379Z,1.00
2022-08-07T08:35:07.876Z,0.75
2022-08-07T08:38:00.550Z,0.65
2022-08-07T08:40:28.538Z,0.90
2022-08-07T08:42:58.924Z,0.85
2022-08-07T08:45:42.052Z,0.85
2022-08-07T08:48:28.415Z,1.10
2022-08-07T08:51:03.452Z,0.82
2022-08-07T08:53:45.851Z,0.40
2022-08-07T08:56:16.967Z,0.50
2022-08-07T08:58:50.655Z,0.77
2022-08-07T09:01:29.920Z,0.60
2022-08-07T09:04:11.057Z,0.50
2022-08-07T09:06:48.082Z,0.90
2022-08-07T09:09:33.093Z,0.80
2022-08-07T09:12:19.938Z,0.85
2022-08-07T09:15:00.625Z,0.50
2022-08-07T09:18:08.719Z,0.70
2022-08-07T09:20:43.808Z,0.50
2022-08-07T09:24:33.255Z,0.98
2022-08-07T09:26:23.698Z,0.50
2022-08-07T09:30:05.813Z,0.40
2022-08-07T09:31:48.633Z,0.47
2022-08-07T09:34:21.722Z,0.40
2022-08-07T09:36:59.981Z,1.23
2022-08-07T09:39:53.642Z,0.57
2022-08-07T09:42:33.567Z,0.30
2022-08-07T09:47:27.389Z,0.50
2022-08-07T09:48:08.797Z,0.50
2022-08-07T09:50:47.331Z,0.68
2022-08-07T09:53:20.142Z,0.63
2022-08-07T09:56:03.379Z,0.70
2022-08-07T09:58:51.995Z,0.50
2022-08-07T10:01:52.631Z,0.60
2022-08-07T10:04:28.096Z,0.45
2022-08-07T10:07:05.523Z,0.50
2022-08-07T10:10:03.624Z,0.68
2022-08-07T10:12:41.983Z,0.65
2022-08-07T10:15:28.843Z,0.73
2022-08-07T10:18:14.228Z,0.57
2022-08-07T10:20:54.531Z,0.40
2022-08-07T10:24:06.583Z,0.40
2022-08-07T10:26:29.841Z,1.02
2022-08-07T10:29:06.887Z,0.70
2022-08-07T10:31:45.221Z,0.40
2022-08-07T10:34:27.191Z,0.50
2022-08-07T10:37:12.379Z,0.85
2022-08-07T10:40:02.937Z,0.63
2022-08-07T10:42:37.113Z,0.45
2022-08-07T10:45:10.695Z,0.75
2022-08-07T10:47:52.722Z,0.50
2022-08-07T10:50:25.687Z,0.40
2022-08-07T10:52:59.639Z,0.70
2022-08-07T10:55:41.946Z,0.50
2022-08-07T10:58:25.050Z,0.40
2022-08-07T11:01:12.410Z,0.60
2022-08-07T11:03:52.768Z,0.40
2022-08-07T11:06:27.103Z,0.60
2022-08-07T11:08:59.539Z,0.70
2022-08-07T11:11:30.979Z,0.52
2022-08-07T11:14:44.578Z,0.80
2022-08-07T11:16:59.393Z,0.77
2022-08-07T11:19:32.234Z,0.60
2022-08-07T11:22:06.187Z,0.95
2022-08-07T11:24:51.887Z,0.73
2022-08-07T11:27:33.607Z,0.63
2022-08-07T11:30:18.962Z,0.52
2022-08-07T11:32:49.624Z,0.70
2022-08-07T11:35:26.739Z,0.70
2022-08-07T11:38:12.433Z,0.55
2022-08-07T11:40:49.559Z,0.52
2022-08-07T11:43:41.194Z,0.50
2022-08-07T11:46:13.055Z,0.60
2022-08-07T11:49:51.068Z,0.75
2022-08-07T11:51:58.715Z,0.68
2022-08-07T11:54:35.562Z,0.73
2022-08-07T11:57:12.735Z,0.50
2022-08-07T12:00:11.550Z,0.60
2022-08-07T12:02:53.765Z,0.30
2022-08-07T12:05:47.420Z,0.80
2022-08-07T12:08:31.823Z,0.40
2022-08-07T12:11:20.206Z,0.35
2022-08-07T12:13:51.895Z,1.00
2022-08-07T12:16:30.434Z,0.40
2022-08-07T12:19:02.246Z,0.73
2022-08-07T12:21:55.825Z,0.55
2022-08-07T12:24:37.485Z,0.30
2022-08-07T12:27:13.256Z,0.50
2022-08-07T12:29:47.708Z,0.50
2022-08-07T12:32:22.161Z,0.30
2022-08-07T12:34:55.741Z,0.68
2022-08-07T12:37:28.424Z,0.60
2022-08-07T12:40:36.394Z,0.50
2022-08-07T12:43:02.931Z,0.70
2022-08-07T12:45:40.360Z,0.53
2022-08-07T12:48:27.673Z,0.70
2022-08-07T12:51:00.532Z,0.50
2022-08-07T12:54:03.418Z,0.55
2022-08-07T12:56:32.417Z,0.63
2022-08-07T12:59:00.905Z,0.43
2022-08-07T13:01:33.381Z,0.43
2022-08-07T13:04:31.667Z,0.57
2022-08-07T13:08:14.250Z,0.57
2022-08-07T13:10:39.418Z,0.60
2022-08-07T13:13:48.061Z,0.43
2022-08-07T13:16:17.967Z,0.60
2022-08-07T13:18:54.423Z,0.45
2022-08-07T13:21:50.260Z,0.52
2022-08-07T13:24:19.455Z,0.40
2022-08-07T13:26:56.201Z,0.68
2022-08-07T13:29:26.041Z,0.82
2022-08-07T13:31:57.497Z,0.75
2022-08-07T13:34:35.828Z,0.70
2022-08-07T13:37:11.030Z,0.50
2022-08-07T13:40:34.946Z,0.50
2022-08-07T13:42:39.443Z,0.35
2022-08-07T13:45:20.825Z,0.40
2022-08-07T13:48:08.293Z,0.55
2022-08-07T13:50:45.157Z,0.30
2022-08-07T13:53:55.140Z,0.50
2022-08-07T13:56:18.882Z,0.60
2022-08-07T13:59:02.069Z,0.52
2022-08-07T14:01:59.141Z,0.60
2022-08-07T14:04:22.018Z,0.60
2022-08-07T14:06:58.104Z,0.60
2022-08-07T14:10:12.170Z,0.50
2022-08-07T14:12:27.549Z,0.43
2022-08-07T14:18:12.278Z,0.35
2022-08-07T14:20:40.693Z,0.43
2022-08-07T14:23:08.515Z,0.40
2022-08-07T14:25:39.337Z,0.60
2022-08-07T14:28:15.363Z,0.40
2022-08-07T14:30:46.836Z,0.65
2022-08-07T14:33:22.296Z,0.30
2022-08-07T14:35:55.833Z,0.80
2022-08-07T14:38:30.673Z,0.50
2022-08-07T14:43:58.983Z,0.50
2022-08-07T14:49:56.702Z,0.60
2022-08-07T14:52:17.187Z,0.80
2022-08-07T14:54:45.484Z,0.50
2022-08-07T14:57:19.608Z,0.60
2022-08-07T15:00:04.723Z,0.50
2022-08-07T15:02:35.202Z,0.73
2022-08-07T15:05:20.447Z,0.45
2022-08-07T15:07:52.129Z,0.65
2022-08-07T15:10:25.943Z,0.50
2022-08-07T15:12:58.187Z,0.80
2022-08-07T15:15:30.603Z,0.63
2022-08-07T15:20:54.639Z,0.90
2022-08-07T15:25:03.999Z,0.88
2022-08-07T15:26:21.213Z,0.57
2022-08-07T15:28:58.557Z,2.50
2022-08-07T15:31:57.656Z,0.80
2022-08-07T15:34:30.471Z,1.98
2022-08-07T15:42:53.768Z,2.00
2022-08-07T15:45:55.459Z,0.98
2022-08-07T15:48:23.197Z,0.73
2022-08-07T15:51:01.951Z,2.47
2022-08-07T15:53:51.581Z,0.70
2022-08-07T15:56:20.973Z,1.55
2022-08-07T15:58:53.449Z,0.52
2022-08-07T16:01:24.668Z,0.50
2022-08-07T16:04:14.601Z,0.50
2022-08-07T16:06:44.247Z,0.55
2022-08-07T16:09:14.039Z,1.50
2022-08-07T16:12:02.231Z,0.50
2022-08-07T16:14:33.973Z,0.70
2022-08-07T16:17:15.065Z,0.60
2022-08-07T16:19:59.342Z,0.63
2022-08-07T16:22:56.400Z,2.17
2022-08-07T16:25:54.187Z,0.60
2022-08-07T16:30:09.271Z,0.50
2022-08-07T16:31:50.973Z,0.52
2022-08-07T16:34:23.794Z,0.40
2022-08-07T16:38:03.368Z,0.70
2022-08-07T16:40:02.899Z,0.50
2022-08-07T16:42:39.913Z,0.40
2022-08-07T16:46:40.692Z,0.65
2022-08-07T16:48:28.842Z,0.63
2022-08-07T16:51:20.975Z,0.68
2022-08-07T16:54:09.102Z,0.60
2022-08-07T16:56:49.984Z,0.80
2022-08-07T16:59:25.461Z,0.57
2022-08-07T17:02:52.416Z,0.90
2022-08-07T17:06:19.160Z,0.80
2022-08-07T17:08:51.298Z,0.60
2022-08-07T17:11:27.562Z,0.80
2022-08-07T17:14:22.174Z,0.57
2022-08-07T17:16:56.012Z,0.85
2022-08-07T17:20:02.251Z,0.60
2022-08-07T17:22:30.179Z,0.80
2022-08-07T17:25:11.021Z,0.60
2022-08-07T17:27:51.085Z,0.68
2022-08-07T17:30:26.999Z,0.63
2022-08-07T17:33:02.888Z,0.80
2022-08-07T17:35:51.817Z,0.43
2022-08-07T17:38:33.230Z,0.80
2022-08-07T17:42:00.809Z,0.70
2022-08-07T17:44:03.116Z,0.73
2022-08-07T17:46:40.326Z,0.63
2022-08-07T17:49:11.088Z,0.80
2022-08-07T17:52:00.750Z,0.73
2022-08-07T17:54:40.254Z,0.75
2022-08-07T17:57:24.611Z,0.70
2022-08-07T17:59:53.886Z,0.77
2022-08-07T18:02:25.441Z,0.80
2022-08-07T18:04:56.512Z,0.55
2022-08-07T18:07:34.352Z,0.80
2022-08-07T18:10:10.298Z,0.65
2022-08-07T18:12:52.390Z,1.00
2022-08-07T18:15:22.566Z,0.68
2022-08-07T18:18:47.225Z,1.13
2022-08-07T18:21:10.405Z,1.00
2022-08-07T18:23:43.223Z,0.70
2022-08-07T18:26:16.362Z,0.88
2022-08-07T18:28:58.434Z,1.00
2022-08-07T18:31:38.820Z,0.93
2022-08-07T18:34:34.838Z,0.95
2022-08-07T18:37:09.719Z,0.95
2022-08-07T18:40:05.555Z,0.90
2022-08-07T18:42:40.039Z,1.17
2022-08-07T18:45:43.881Z,0.80
2022-08-07T18:48:03.840Z,0.80
2022-08-07T18:50:58.292Z,1.05
2022-08-07T18:53:36.690Z,0.85
2022-08-07T18:56:12.679Z,0.90
2022-08-07T18:58:51.163Z,0.80
2022-08-07T19:02:19.256Z,0.90
2022-08-07T19:04:28.179Z,1.30
2022-08-07T19:07:08.465Z,0.90
2022-08-07T19:09:55.875Z,0.95
2022-08-07T19:12:31.801Z,1.10
2022-08-07T19:15:02.289Z,0.90
2022-08-07T19:18:07.314Z,1.10
2022-08-07T19:21:09.652Z,1.00
2022-08-07T19:23:58.585Z,1.40
2022-08-07T19:26:28.889Z,0.98
2022-08-07T19:28:59.192Z,1.10
2022-08-07T19:32:07.936Z,0.85
2022-08-07T19:34:38.915Z,1.00
2022-08-07T19:37:10.044Z,0.90
2022-08-07T19:39:57.895Z,1.23
2022-08-07T19:42:30.300Z,1.40
2022-08-07T19:44:58.970Z,1.17
2022-08-07T19:47:30.965Z,1.10
2022-08-07T19:50:43.803Z,1.20
2022-08-07T19:52:58.369Z,1.20
2022-08-07T19:55:56.944Z,1.30
2022-08-07T19:58:16.734Z,1.27
2022-08-07T20:00:55.284Z,1.30
2022-08-07T20:03:33.642Z,1.63
2022-08-07T20:06:04.447Z,1.10
2022-08-07T20:08:34.056Z,1.52
2022-08-07T20:11:03.970Z,1.77
2022-08-07T20:13:41.989Z,1.60
2022-08-07T20:16:31.949Z,1.60
2022-08-07T20:18:58.822Z,1.23
2022-08-07T20:21:42.151Z,1.20
2022-08-07T20:24:18.964Z,1.48
2022-08-07T20:26:50.148Z,1.60
2022-08-07T20:29:47.051Z,1.10
2022-08-07T20:32:11.265Z,1.35
2022-08-07T20:34:50.857Z,1.98
2022-08-07T20:37:23.921Z,1.38
2022-08-07T20:40:04.328Z,1.73
2022-08-07T20:42:33.186Z,1.25
2022-08-07T20:45:01.211Z,1.50
2022-08-07T20:47:55.319Z,1.50
2022-08-07T20:50:20.604Z,1.42
2022-08-07T20:52:51.335Z,1.40
2022-08-07T20:55:23.935Z,1.50
2022-08-07T20:58:03.539Z,1.45
2022-08-07T21:00:32.809Z,1.60
2022-08-07T21:03:01.587Z,1.65
2022-08-07T21:05:51.260Z,1.23
2022-08-07T21:08:36.989Z,1.70
2022-08-07T21:11:10.918Z,1.20
2022-08-07T21:13:57.140Z,1.90
2022-08-07T21:16:31.432Z,1.50
2022-08-07T21:19:00.531Z,1.80
2022-08-07T21:21:30.792Z,1.55
2022-08-07T21:24:06.777Z,1.65
2022-08-07T21:26:42.841Z,1.80
2022-08-07T21:29:15.893Z,1.73
2022-08-07T21:32:43.188Z,1.60
2022-08-07T21:34:34.890Z,1.75
2022-08-07T21:37:19.661Z,1.60
2022-08-07T21:39:54.589Z,2.10
2022-08-07T21:42:42.518Z,1.63
2022-08-07T21:46:08.117Z,1.90
2022-08-07T21:48:07.790Z,2.05
2022-08-07T21:50:58.714Z,1.98
2022-08-07T21:53:30.901Z,1.77
2022-08-07T21:56:04.538Z,2.05
2022-08-07T21:58:52.352Z,2.83
2022-08-07T22:02:07.098Z,1.65
2022-08-07T22:04:13.777Z,1.70
2022-08-07T22:06:50.466Z,2.00
2022-08-07T22:09:25.164Z,1.55
2022-08-07T22:12:05.163Z,1.95
2022-08-07T22:14:38.091Z,2.40
2022-08-07T22:17:26.978Z,2.22
2022-08-07T22:20:08.628Z,1.77
2022-08-07T22:22:51.478Z,2.22
2022-08-07T22:25:26.358Z,2.40
2022-08-07T22:28:07.990Z,1.92
2022-08-07T22:30:53.392Z,2.65
2022-08-07T22:33:52.780Z,2.58
2022-08-07T22:36:13.509Z,2.22
2022-08-07T22:38:47.867Z,2.10
2022-08-07T22:41:17.352Z,2.38
2022-08-07T22:43:50.482Z,2.30
2022-08-07T22:47:02.228Z,2.45
2022-08-07T22:49:54.557Z,2.45
2022-08-07T22:52:39.955Z,2.33
2022-08-07T22:55:31.735Z,2.40
2022-08-07T22:58:18.654Z,2.55
2022-08-07T23:00:57.646Z,2.38
2022-08-07T23:03:58.031Z,2.35
2022-08-07T23:06:31.664Z,2.97
2022-08-07T23:10:03.925Z,2.72
2022-08-07T23:12:01.445Z,2.65
2022-08-07T23:14:47.567Z,2.45
2022-08-07T23:17:37.375Z,2.13
2022-08-07T23:20:40.461Z,2.67
2022-08-07T23:24:05.395Z,2.90
2022-08-07T23:26:18.295Z,2.60
2022-08-07T23:28:58.405Z,2.85
2022-08-07T23:32:48.870Z,2.55
2022-08-07T23:34:44.354Z,2.60
2022-08-07T23:37:32.661Z,3.03
2022-08-07T23:40:04.508Z,3.28
2022-08-07T23:42:43.203Z,3.00
2022-08-07T23:45:33.173Z,2.80
2022-08-07T23:48:25.112Z,2.80
2022-08-07T23:50:55.146Z,2.78
2022-08-07T23:53:49.817Z,3.22
2022-08-07T23:56:20.748Z,3.05
2022-08-07T23:58:55.979Z,2.90
